Terminal Aerodrome Forecast
Issued by NWS Grand Rapids, MI

Home | Current Version | Previous Version | Text Only | Print | Product List | Glossary On
Versions: 1 2 3 4 5 6 7 8 9 10 11 12 13 14 15 16
968
FTUS43 KGRR 111152
TAFGRR
TAF
KGRR 111152Z 1112/1212 31010KT P6SM BKN040
     FM111600 29010KT 6SM -SHSN OVC035
     FM120000 24007KT P6SM -SN BKN040
     FM121100 25011G20KT 4SM -SHSN BR OVC030=

USA.gov is the U.S. government's official web portal to all federal, state and local government web resources and services.